Time;durP1;ratioP1;P1;durP2;ratioP2;P2;SDS_P1;SDS_P2;PMS_P1;PMS_P2;Temp;Humidity;BMP_temperature;BMP_pressure;BME280_temperature;BME280_humidity;BME280_pressure;Samples;Min_cycle;Max_cycle;Signal;HPM_P1;HPM_P2
2023/01/11 07:37:04;;;;;;;2.97;0.90;;;10.60;99.90;11.10;100681.00;;;;5071381;28;21120;-69
2023/01/11 07:39:30;;;;;;;0.50;0.50;;;10.50;99.90;11.00;100691.00;;;;5046416;28;20591;-69
2023/01/11 07:44:40;;;;;;;2.47;0.90;;;10.30;99.90;11.10;100682.00;;;;5074007;28;20654;-69
2023/01/11 07:47:08;;;;;;;3.93;1.50;;;10.30;99.90;11.00;100693.00;;;;5049129;28;20193;-69
2023/01/11 07:49:34;;;;;;;8.23;2.57;;;10.30;99.90;10.80;100705.00;;;;5064845;28;20235;-69
2023/01/11 07:52:05;;;;;;;4.90;4.43;;;10.30;99.90;10.30;100718.00;;;;5051221;28;20244;-69
2023/01/11 07:54:33;;;;;;;2.43;0.73;;;10.20;99.90;10.00;100722.00;;;;5061455;28;20224;-69
2023/01/11 07:56:59;;;;;;;4.50;1.63;;;10.00;99.90;10.20;100737.00;;;;5043973;28;20531;-69
2023/01/11 07:59:25;;;;;;;3.80;1.80;;;10.00;99.90;10.10;100746.00;;;;5027236;28;20197;-69
2023/01/11 08:01:51;;;;;;;2.83;0.57;;;9.90;99.90;10.60;100756.00;;;;5036621;28;20198;-69
2023/01/11 08:04:17;;;;;;;0.30;0.30;;;10.00;99.90;10.40;100700.00;;;;5050156;28;20254;-70
2023/01/11 08:06:43;;;;;;;2.03;0.60;;;10.00;99.90;10.30;100754.00;;;;5044970;28;20682;-69
2023/01/11 08:09:09;;;;;;;0.87;0.37;;;9.90;99.90;10.30;100767.00;;;;5049101;28;20242;-68
2023/01/11 08:17:05;;;;;;;4.23;0.70;;;9.90;99.90;10.00;100764.00;;;;5054886;28;20196;-69
2023/01/11 08:19:31;;;;;;;0.20;0.20;;;9.80;99.90;10.20;100768.00;;;;5072541;28;20197;-69
2023/01/11 08:22:02;;;;;;;4.07;1.47;;;9.80;99.90;10.00;100729.00;;;;5062477;28;20189;-69
2023/01/11 08:24:28;;;;;;;9.33;1.73;;;9.80;99.90;10.30;100758.00;;;;5051110;28;20194;-69
2023/01/11 08:26:57;;;;;;;0.20;0.20;;;9.80;99.90;10.80;100779.00;;;;5044407;28;20182;-69
2023/01/11 08:29:24;;;;;;;1.60;1.20;;;10.00;99.90;10.80;100768.00;;;;5036677;28;20247;-69
2023/01/11 08:31:51;;;;;;;7.73;1.13;;;10.00;99.90;10.30;100769.00;;;;5044985;28;20211;-69
2023/01/11 08:34:16;;;;;;;1.40;1.10;;;9.80;99.90;9.80;100776.00;;;;5035780;28;20249;-69
2023/01/11 08:36:42;;;;;;;0.30;0.30;;;9.70;99.90;10.00;100778.00;;;;5066848;28;20194;-69
2023/01/11 08:39:09;;;;;;;1.17;0.53;;;9.70;99.90;10.60;100781.00;;;;5042251;28;20243;-69
2023/01/11 08:41:35;;;;;;;0.53;0.53;;;9.80;99.90;10.20;100788.00;;;;5053822;28;20199;-69
2023/01/11 08:44:02;;;;;;;5.53;2.47;;;9.70;99.90;10.40;100794.00;;;;5037476;28;20197;-69
2023/01/11 08:46:28;;;;;;;2.00;1.13;;;9.70;99.90;10.40;100803.00;;;;5040652;28;20212;-69
2023/01/11 08:48:54;;;;;;;1.50;0.80;;;9.80;99.90;10.60;100755.00;;;;5024898;28;20221;-69
2023/01/11 08:51:20;;;;;;;0.93;0.93;;;9.90;99.90;10.40;100804.00;;;;5038000;28;20303;-69
2023/01/11 08:53:45;;;;;;;0.30;0.30;;;9.80;99.90;10.10;100791.00;;;;5035044;28;20554;-69
2023/01/11 08:56:14;;;;;;;8.80;1.37;;;9.70;99.90;10.60;100789.00;;;;5054447;28;20222;-69
2023/01/11 08:58:40;;;;;;;2.20;0.90;;;9.80;99.90;10.00;100795.00;;;;5062761;28;20918;-69
2023/01/11 09:01:08;;;;;;;0.93;0.73;;;9.70;99.90;10.30;100763.00;;;;5033136;28;20219;-69
2023/01/11 09:03:34;;;;;;;7.07;2.47;;;9.70;99.90;10.50;100800.00;;;;5056279;28;20630;-69
2023/01/11 09:06:01;;;;;;;2.43;1.70;;;9.80;99.90;10.00;100810.00;;;;5045674;28;20184;-67
2023/01/11 09:08:27;;;;;;;3.23;1.70;;;9.70;99.90;9.70;100801.00;;;;5025591;28;20279;-67
2023/01/11 09:10:55;;;;;;;13.00;2.13;;;9.60;99.90;10.10;100816.00;;;;5046041;28;20200;-67
2023/01/11 09:13:22;;;;;;;0.73;0.73;;;9.60;99.90;10.20;100817.00;;;;5039650;28;20229;-67
2023/01/11 09:15:57;;;;;;;1.17;0.93;;;9.70;99.90;9.90;100817.00;;;;5022687;28;20196;-74
2023/01/11 09:18:25;;;;;;;5.47;2.60;;;9.70;99.90;10.30;100825.00;;;;5035628;28;20190;-67
2023/01/11 09:20:53;;;;;;;2.00;1.60;;;9.80;99.90;10.50;100821.00;;;;5063457;28;20195;-67
2023/01/11 09:23:21;;;;;;;6.77;4.97;;;9.90;99.90;9.80;100819.00;;;;5045380;28;20585;-67
2023/01/11 09:25:49;;;;;;;4.70;4.27;;;9.80;99.90;9.70;100847.00;;;;5038325;28;20194;-68
2023/01/11 09:28:15;;;;;;;3.67;2.07;;;9.70;99.90;9.60;100827.00;;;;5022433;28;20203;-67
2023/01/11 09:30:52;;;;;;;0.40;0.40;;;9.70;99.90;10.50;100828.00;;;;5059393;28;20192;-68
2023/01/11 09:33:21;;;;;;;3.60;1.90;;;9.80;99.90;10.70;100834.00;;;;5043496;28;20692;-67
2023/01/11 09:35:50;;;;;;;0.67;0.40;;;10.00;99.90;10.10;100786.00;;;;5037595;28;20194;-67
2023/01/11 09:38:16;;;;;;;2.10;1.53;;;10.00;99.90;10.50;100845.00;;;;5048735;28;20197;-67
2023/01/11 09:41:28;;;;;;;0.30;0.30;;;10.00;99.90;10.50;100846.00;;;;5061568;28;20651;-67
2023/01/11 09:43:58;;;;;;;2.07;1.87;;;10.10;99.90;10.10;100853.00;;;;5057190;28;20188;-67
2023/01/11 09:46:47;;;;;;;12.03;1.77;;;10.00;99.90;10.80;100852.00;;;;5060387;28;20196;-67
2023/01/11 09:49:57;;;;;;;2.90;1.00;;;10.20;99.90;10.20;100844.00;;;;5023748;28;20653;-68
2023/01/11 09:53:13;;;;;;;1.33;0.83;;;10.20;99.90;10.50;100850.00;;;;5028186;28;20203;-68
2023/01/11 09:56:24;;;;;;;16.73;2.93;;;10.30;99.90;10.80;100846.00;;;;5013409;28;20331;-68
2023/01/11 09:59:25;;;;;;;2.20;2.00;;;10.30;99.90;10.70;100856.00;;;;5031592;28;20190;-68
2023/01/11 10:02:18;;;;;;;2.60;2.40;;;10.50;99.90;11.50;100861.00;;;;5039343;28;20192;-67
2023/01/11 10:05:17;;;;;;;11.77;1.90;;;10.60;99.90;11.40;100856.00;;;;5018024;28;20203;-67
2023/01/11 10:08:04;;;;;;;1.47;0.63;;;10.70;99.90;11.10;100853.00;;;;5061264;28;20181;-67
2023/01/11 10:10:53;;;;;;;2.33;1.40;;;10.80;99.90;11.10;100862.00;;;;5061010;28;20189;-67
2023/01/11 10:13:53;;;;;;;1.30;0.43;;;10.70;99.90;10.80;100868.00;;;;5034873;28;20223;-67
2023/01/11 10:16:59;;;;;;;2.03;1.40;;;10.80;99.90;11.20;100868.00;;;;5057571;28;20194;-67
2023/01/11 10:19:44;;;;;;;5.80;1.43;;;10.80;99.90;11.20;100877.00;;;;5062599;28;20199;-65
2023/01/11 10:42:22;;;;;;;9.27;1.63;;;11.00;99.90;11.80;100877.00;;;;5054551;28;20211;-65
2023/01/11 10:45:16;;;;;;;0.73;0.73;;;11.00;99.90;12.60;100833.00;;;;5052977;28;20237;-65
2023/01/11 10:48:14;;;;;;;1.43;0.63;;;11.30;99.90;12.10;100886.00;;;;5039758;28;20199;-65
2023/01/11 10:51:30;;;;;;;4.93;1.40;;;11.30;99.90;12.00;100884.00;;;;5048690;28;20195;-65
2023/01/11 10:54:20;;;;;;;7.77;2.07;;;11.20;99.90;11.90;100823.00;;;;5038977;28;20187;-66
2023/01/11 10:57:18;;;;;;;4.40;2.07;;;11.30;99.90;11.80;100829.00;;;;5049640;28;20189;-65
2023/01/11 11:00:04;;;;;;;0.20;0.20;;;11.20;99.90;12.00;100867.00;;;;5051020;28;20240;-66
2023/01/11 11:02:47;;;;;;;2.40;1.10;;;11.50;99.90;12.10;100876.00;;;;5053197;28;20681;-65
2023/01/11 11:05:48;;;;;;;2.93;1.73;;;11.50;99.90;12.20;100874.00;;;;5047721;28;20220;-66
2023/01/11 11:08:47;;;;;;;8.90;1.90;;;11.40;99.90;13.20;100886.00;;;;5049279;28;20179;-67
2023/01/11 11:11:52;;;;;;;21.23;1.60;;;11.80;99.90;12.50;100894.00;;;;5046787;28;20185;-66
2023/01/11 11:14:27;;;;;;;0.57;0.53;;;11.70;99.90;12.80;100891.00;;;;5044431;28;20199;-66
2023/01/11 11:17:22;;;;;;;2.97;2.67;;;11.60;99.90;12.60;100889.00;;;;5049303;28;20237;-66
2023/01/11 11:19:48;;;;;;;4.67;1.57;;;11.50;99.90;12.40;100902.00;;;;5040734;28;20268;-66
2023/01/11 11:22:37;;;;;;;1.27;1.00;;;11.40;99.90;12.30;100910.00;;;;5065075;28;20650;-66
2023/01/11 11:25:16;;;;;;;1.70;0.60;;;11.30;99.90;12.60;100896.00;;;;5045708;28;20321;-66
2023/01/11 11:27:54;;;;;;;6.33;1.77;;;11.50;99.90;11.90;100906.00;;;;5043829;28;20193;-66
2023/01/11 11:30:36;;;;;;;11.40;1.63;;;11.30;99.90;12.50;100893.00;;;;5034178;28;20294;-66
2023/01/11 11:33:28;;;;;;;11.87;3.63;;;11.30;99.90;12.30;100867.00;;;;5047641;28;20220;-66
2023/01/11 11:36:03;;;;;;;7.43;3.60;;;11.40;99.90;11.70;100908.00;;;;5043844;28;20279;-66
2023/01/11 11:38:46;;;;;;;5.57;1.73;;;11.20;99.90;11.80;100906.00;;;;5048023;28;20584;-66
2023/01/11 11:41:16;;;;;;;3.73;1.37;;;11.10;99.90;12.40;100903.00;;;;5047671;28;20562;-66
2023/01/11 11:44:23;;;;;;;1.67;0.90;;;11.20;99.90;12.80;100908.00;;;;5040837;28;20185;-66
2023/01/11 11:47:38;;;;;;;6.60;0.80;;;11.60;99.90;12.40;100914.00;;;;5034216;28;20192;-66
2023/01/11 11:50:19;;;;;;;1.20;0.73;;;11.60;99.90;12.40;100913.00;;;;5025094;28;20221;-66
2023/01/11 11:53:21;;;;;;;3.43;1.37;;;11.50;99.90;11.80;100921.00;;;;5035492;28;20218;-66
2023/01/11 11:55:47;;;;;;;3.33;0.73;;;11.40;99.90;12.50;100916.00;;;;5062517;28;20557;-66
2023/01/11 11:58:19;;;;;;;9.20;1.33;;;11.40;99.90;12.70;100933.00;;;;5034084;28;20256;-66
2023/01/11 12:00:50;;;;;;;10.33;2.13;;;11.60;99.90;13.70;100945.00;;;;5017760;28;20225;-66
2023/01/11 12:03:24;;;;;;;8.07;1.70;;;12.10;99.90;13.10;100944.00;;;;5033016;28;20194;-66
2023/01/11 12:06:01;;;;;;;10.07;1.97;;;11.90;99.90;12.60;100933.00;;;;5032788;28;20188;-65
2023/01/11 12:08:35;;;;;;;0.57;0.50;;;11.70;99.90;12.90;100947.00;;;;5032212;28;20190;-66
2023/01/11 12:11:05;;;;;;;3.00;1.00;;;11.80;99.90;13.00;100926.00;;;;5016932;28;20193;-66
2023/01/11 12:13:41;;;;;;;5.63;1.13;;;11.70;99.90;12.80;100931.00;;;;5034053;28;20186;-66
2023/01/11 12:16:20;;;;;;;5.93;2.40;;;11.70;99.90;13.20;100929.00;;;;5033706;28;20181;-66
2023/01/11 12:18:49;;;;;;;13.60;4.87;;;11.90;99.90;13.30;100933.00;;;;5034017;28;20840;-66
2023/01/11 12:21:24;;;;;;;5.87;2.53;;;12.10;99.90;12.20;100933.00;;;;5033908;28;20200;-66
2023/01/11 12:24:07;;;;;;;8.13;0.97;;;11.60;99.90;13.30;100897.00;;;;5035053;28;20215;-66
2023/01/11 12:27:08;;;;;;;0.97;0.30;;;11.80;99.90;13.20;100941.00;;;;5034381;28;20647;-66
2023/01/11 12:30:03;;;;;;;3.70;0.97;;;12.00;99.90;12.60;100927.00;;;;5026562;28;20223;-66
2023/01/11 12:33:43;;;;;;;1.57;1.57;;;11.70;99.90;13.00;100928.00;;;;5033234;28;20636;-66
2023/01/11 12:36:53;;;;;;;5.77;1.00;;;11.60;99.90;12.20;100902.00;;;;5032443;28;20283;-66
2023/01/11 12:39:47;;;;;;;2.43;1.00;;;11.50;99.90;12.70;100905.00;;;;5031717;28;20285;-66
2023/01/11 12:43:06;;;;;;;1.07;0.97;;;11.60;99.90;12.70;100864.00;;;;5033407;28;20196;-66
2023/01/11 12:46:11;;;;;;;1.90;0.70;;;11.60;99.90;13.00;100870.00;;;;5034835;28;20185;-66
2023/01/11 12:48:56;;;;;;;13.60;2.43;;;11.70;99.90;12.20;100912.00;;;;5015849;28;20199;-65
2023/01/11 12:51:49;;;;;;;3.53;1.93;;;11.60;99.90;12.80;100925.00;;;;5034475;28;20259;-66
2023/01/11 12:54:43;;;;;;;9.23;1.83;;;11.60;99.90;12.40;100901.00;;;;5029585;28;20192;-66
2023/01/11 12:57:12;;;;;;;12.63;3.13;;;11.50;99.90;13.60;100916.00;;;;5033776;28;20188;-67
2023/01/11 13:00:39;;;;;;;10.23;1.53;;;11.90;99.90;12.90;100922.00;;;;5034766;28;20271;-67
2023/01/11 13:03:34;;;;;;;3.17;1.17;;;11.90;99.90;13.50;100917.00;;;;5032047;28;20234;-67
2023/01/11 13:06:24;;;;;;;9.97;1.50;;;11.90;99.90;13.10;100922.00;;;;5033272;28;20262;-66
2023/01/11 13:09:13;;;;;;;2.60;0.97;;;11.90;99.90;12.70;100932.00;;;;5022658;28;20214;-66
2023/01/11 13:12:20;;;;;;;2.03;0.87;;;11.80;99.90;12.90;100927.00;;;;5033648;28;20237;-67
2023/01/11 13:15:07;;;;;;;3.57;1.37;;;11.80;99.90;13.30;100943.00;;;;5034289;28;20187;-67
2023/01/11 13:17:46;;;;;;;8.30;2.37;;;11.90;99.90;13.00;100883.00;;;;5034335;28;20607;-66
2023/01/11 13:20:40;;;;;;;4.47;1.73;;;11.70;99.90;13.10;100936.00;;;;5033174;28;20548;-66
2023/01/11 13:23:40;;;;;;;1.73;1.37;;;11.70;99.90;12.90;100939.00;;;;5020452;28;20185;-66
2023/01/11 13:26:38;;;;;;;10.73;2.27;;;11.50;99.90;13.30;100934.00;;;;5032249;28;20191;-67
2023/01/11 13:29:28;;;;;;;3.63;1.23;;;11.40;99.90;13.10;100923.00;;;;5035324;28;20223;-66
2023/01/11 13:31:59;;;;;;;5.73;1.13;;;11.60;99.90;13.00;100922.00;;;;5003284;28;20216;-66
2023/01/11 13:34:46;;;;;;;7.53;1.80;;;11.40;99.90;13.00;100890.00;;;;5028731;28;20196;-66
2023/01/11 13:37:41;;;;;;;5.60;1.30;;;11.40;99.90;13.00;100926.00;;;;5031000;28;20192;-67
2023/01/11 13:40:35;;;;;;;2.00;0.67;;;11.40;99.90;12.90;100924.00;;;;5032422;28;20662;-66
2023/01/11 13:43:14;;;;;;;1.87;0.50;;;11.50;99.90;13.90;100888.00;;;;5048761;28;20271;-67
2023/01/11 13:45:52;;;;;;;0.93;0.93;;;11.60;99.90;13.00;100908.00;;;;5032414;28;20191;-66
2023/01/11 13:48:37;;;;;;;6.63;2.23;;;11.70;99.90;13.20;100910.00;;;;5033641;28;20193;-66
2023/01/11 13:51:25;;;;;;;2.33;1.43;;;11.90;99.90;12.90;100915.00;;;;5032526;28;20623;-66
2023/01/11 13:54:02;;;;;;;6.20;0.97;;;11.80;99.90;13.00;100925.00;;;;5031802;28;20541;-67
2023/01/11 13:56:55;;;;;;;4.67;1.17;;;11.70;99.90;13.10;100928.00;;;;5013341;28;20188;-66
2023/01/11 14:00:14;;;;;;;1.73;0.63;;;11.60;99.90;13.00;100922.00;;;;5027861;28;20194;-66
2023/01/11 14:02:51;;;;;;;8.93;1.83;;;11.50;99.90;12.70;100917.00;;;;5030555;28;20266;-67
2023/01/11 14:05:20;;;;;;;4.87;1.17;;;11.50;99.90;13.00;100936.00;;;;5014892;28;20324;-66
2023/01/11 14:08:01;;;;;;;2.80;1.47;;;11.50;99.90;12.50;100925.00;;;;5029221;28;20297;-66
2023/01/11 14:10:39;;;;;;;5.50;1.37;;;11.40;99.90;12.30;100930.00;;;;5032981;28;20640;-66
2023/01/11 14:16:55;;;;;;;0.20;0.20;;;11.30;99.90;13.50;100946.00;;;;5032949;28;20199;-66
2023/01/11 14:19:33;;;;;;;4.00;1.57;;;11.60;99.90;13.40;100891.00;;;;5028875;28;20263;-66
2023/01/11 14:22:24;;;;;;;0.10;0.10;;;11.60;99.90;14.60;100960.00;;;;5032240;28;20221;-66
2023/01/11 14:24:58;;;;;;;0.10;0.10;;;11.80;99.90;13.10;100947.00;;;;5023116;28;20685;-66
2023/01/11 14:28:10;;;;;;;1.33;0.63;;;11.60;99.90;12.90;100941.00;;;;5031656;28;20631;-66
2023/01/11 14:31:19;;;;;;;9.83;1.63;;;11.50;99.90;12.80;100924.00;;;;5030472;28;20216;-66
2023/01/11 14:34:19;;;;;;;2.37;1.40;;;11.50;99.90;12.70;100923.00;;;;5027609;28;20195;-66
2023/01/11 14:37:11;;;;;;;11.43;2.40;;;11.40;99.90;12.20;100915.00;;;;5028593;28;20196;-66
2023/01/11 14:40:04;;;;;;;2.47;1.47;;;11.30;99.90;12.60;100929.00;;;;5029832;28;20194;-66
2023/01/11 14:43:32;;;;;;;5.90;2.10;;;11.20;99.90;11.90;100931.00;;;;5021280;28;20224;-66
2023/01/11 14:46:35;;;;;;;14.10;1.83;;;11.10;99.90;12.10;100920.00;;;;5027534;28;20185;-66
2023/01/11 14:49:28;;;;;;;0.50;0.50;;;11.10;99.90;12.30;100942.00;;;;5032515;28;20697;-66
2023/01/11 14:52:02;;;;;;;1.83;0.70;;;11.20;99.90;12.50;100934.00;;;;5032815;28;20291;-66
2023/01/11 14:54:48;;;;;;;2.73;1.03;;;11.10;99.90;12.40;100943.00;;;;5030908;28;20180;-66
2023/01/11 14:57:38;;;;;;;3.80;2.10;;;11.20;99.90;12.90;100939.00;;;;5031403;28;20190;-66
2023/01/11 15:00:19;;;;;;;0.50;0.50;;;11.20;99.90;12.60;100904.00;;;;5030875;28;20232;-66
2023/01/11 15:02:58;;;;;;;6.93;1.27;;;11.10;99.90;13.20;100951.00;;;;5031334;28;20197;-66
2023/01/11 15:05:30;;;;;;;3.50;0.93;;;11.20;99.90;12.90;100963.00;;;;5044254;28;20195;-66
2023/01/11 15:08:32;;;;;;;15.37;1.47;;;11.20;99.90;12.90;100960.00;;;;5023549;28;20216;-66
2023/01/11 15:11:40;;;;;;;1.40;0.77;;;11.20;99.90;12.40;100966.00;;;;5023032;28;20580;-66
2023/01/11 15:14:39;;;;;;;0.40;0.40;;;11.00;99.90;12.70;100982.00;;;;5027951;28;20193;-66
2023/01/11 15:20:16;;;;;;;2.30;1.30;;;11.10;99.90;12.00;100966.00;;;;5034577;28;20187;-66
2023/01/11 15:22:57;;;;;;;1.07;1.07;;;10.90;99.90;13.20;100985.00;;;;5035031;28;20179;-66
2023/01/11 15:25:30;;;;;;;4.73;1.83;;;11.10;99.90;12.40;100979.00;;;;5035119;28;20251;-66
2023/01/11 15:28:52;;;;;;;0.10;0.10;;;11.00;99.90;12.60;100970.00;;;;5034746;28;20657;-66
2023/01/11 15:31:53;;;;;;;0.30;0.30;;;10.90;99.90;13.00;100935.00;;;;5020622;28;20236;-66
2023/01/11 15:34:33;;;;;;;0.60;0.60;;;11.00;99.90;13.00;100943.00;;;;5034218;28;20202;-66
2023/01/11 15:37:05;;;;;;;4.00;1.30;;;11.10;99.90;12.40;100991.00;;;;5030851;28;20198;-66
2023/01/11 15:39:39;;;;;;;3.90;1.00;;;11.00;99.90;13.70;100983.00;;;;5034636;28;20179;-66
2023/01/11 15:42:14;;;;;;;5.40;1.50;;;11.10;99.90;12.20;100924.00;;;;5033759;28;20186;-66
2023/01/11 15:45:21;;;;;;;0.50;0.50;;;10.90;99.90;12.30;100967.00;;;;5034716;28;20187;-66
2023/01/11 15:48:11;;;;;;;0.20;0.20;;;10.70;99.90;13.00;100976.00;;;;5026225;28;20622;-66
2023/01/11 15:51:25;;;;;;;3.47;1.17;;;10.80;99.90;12.00;100968.00;;;;5031148;28;20198;-66
2023/01/11 15:54:33;;;;;;;0.87;0.30;;;10.60;99.90;12.70;100959.00;;;;5050899;28;20187;-66
2023/01/11 15:57:40;;;;;;;0.20;0.20;;;10.50;99.90;13.00;100981.00;;;;5024689;28;20241;-66
2023/01/11 16:00:55;;;;;;;0.20;0.20;;;10.60;99.90;13.90;100974.00;;;;5016268;28;20229;-66
2023/01/11 16:03:49;;;;;;;2.67;0.40;;;10.90;99.90;12.90;101000.00;;;;5030082;28;20282;-66
2023/01/11 16:06:45;;;;;;;0.37;0.37;;;10.90;99.90;12.80;101000.00;;;;5030806;28;20266;-66
2023/01/11 16:10:06;;;;;;;0.20;0.20;;;10.80;99.90;12.70;100991.00;;;;5032692;28;20190;-66
2023/01/11 16:12:44;;;;;;;0.50;0.50;;;10.50;99.90;13.40;100985.00;;;;5027057;28;20216;-66
2023/01/11 16:15:37;;;;;;;0.33;0.33;;;10.70;99.90;13.50;100973.00;;;;5035020;28;20251;-66
2023/01/11 16:18:26;;;;;;;4.43;1.17;;;10.90;99.90;13.50;101007.00;;;;5026481;28;20328;-66
2023/01/11 16:21:20;;;;;;;0.20;0.20;;;10.80;99.90;13.60;100998.00;;;;5034316;28;20183;-66
2023/01/11 16:23:48;;;;;;;1.47;0.43;;;10.90;99.90;12.50;100983.00;;;;5035036;28;20190;-66
2023/01/11 16:26:26;;;;;;;3.53;0.57;;;10.60;99.90;12.50;100991.00;;;;5033251;28;20340;-66
2023/01/11 16:29:26;;;;;;;0.40;0.40;;;10.50;99.90;13.20;100985.00;;;;5033398;28;20194;-66
2023/01/11 16:32:05;;;;;;;4.43;1.03;;;10.60;99.90;13.00;101000.00;;;;5017900;28;20307;-66
2023/01/11 16:34:50;;;;;;;0.40;0.40;;;10.70;99.90;13.50;100999.00;;;;5033167;28;20677;-67
2023/01/11 16:37:43;;;;;;;2.97;1.33;;;10.90;99.90;12.10;100992.00;;;;5032295;28;20265;-66
2023/01/11 16:40:39;;;;;;;0.20;0.20;;;10.50;99.90;13.10;100958.00;;;;5033468;28;20359;-66
2023/01/11 16:43:28;;;;;;;1.10;1.00;;;10.50;99.90;12.50;101008.00;;;;5032851;28;20209;-66
2023/01/11 16:46:00;;;;;;;0.30;0.30;;;10.50;99.90;13.40;101020.00;;;;5029438;28;20215;-66
2023/01/11 16:48:37;;;;;;;0.60;0.50;;;10.70;99.90;13.60;101018.00;;;;5033539;28;20179;-66
2023/01/11 16:51:26;;;;;;;6.27;3.07;;;10.90;99.90;12.50;101023.00;;;;5032670;28;20190;-66
2023/01/11 16:53:58;;;;;;;0.20;0.20;;;10.70;99.90;13.60;100985.00;;;;5032421;28;20202;-66
2023/01/11 16:56:43;;;;;;;0.90;0.90;;;10.70;99.90;12.70;100992.00;;;;5033249;28;20183;-66
2023/01/11 16:59:46;;;;;;;0.40;0.40;;;10.60;99.90;12.00;100995.00;;;;5016241;28;20537;-66
2023/01/11 17:02:38;;;;;;;0.40;0.30;;;10.50;99.90;12.40;101001.00;;;;5029706;28;20194;-66
2023/01/11 17:06:11;;;;;;;0.30;0.30;;;10.40;99.90;12.30;101001.00;;;;5033382;28;20174;-66
2023/01/11 17:08:54;;;;;;;0.67;0.60;;;10.40;99.90;12.60;100952.00;;;;5027363;28;20284;-66
2023/01/11 17:11:38;;;;;;;0.93;0.37;;;10.40;99.90;12.30;100988.00;;;;5032525;28;20183;-66
2023/01/11 17:14:43;;;;;;;0.63;0.63;;;10.40;99.90;13.10;100987.00;;;;5021608;28;20210;-67
2023/01/11 17:17:21;;;;;;;0.20;0.20;;;10.50;99.90;12.70;100985.00;;;;5021306;28;20180;-66
2023/01/11 17:20:06;;;;;;;0.80;0.60;;;10.60;99.90;12.60;100983.00;;;;5034080;28;20271;-66
2023/01/11 17:23:07;;;;;;;3.73;0.50;;;10.70;99.90;12.50;100985.00;;;;5032604;28;20644;-66
2023/01/11 17:25:39;;;;;;;1.60;1.60;;;10.60;99.90;13.60;101006.00;;;;5014424;28;20174;-66
2023/01/11 17:28:38;;;;;;;0.50;0.50;;;10.80;99.90;13.30;101007.00;;;;5012782;28;20200;-66
2023/01/11 17:31:25;;;;;;;0.20;0.20;;;10.80;99.90;13.30;100958.00;;;;5016968;28;20202;-66
2023/01/11 17:34:18;;;;;;;0.30;0.30;;;10.80;99.90;12.90;101010.00;;;;5031605;28;20210;-66
2023/01/11 17:36:46;;;;;;;0.67;0.60;;;10.80;99.90;13.50;100991.00;;;;5031833;28;20203;-67
2023/01/11 17:39:30;;;;;;;4.13;1.40;;;10.90;99.90;12.20;100985.00;;;;5065535;28;20270;-66
2023/01/11 17:47:33;;;;;;;0.93;0.50;;;10.50;99.90;12.30;100983.00;;;;5032779;28;20712;-66
2023/01/11 17:50:01;;;;;;;1.77;0.90;;;10.60;99.90;11.40;100981.00;;;;5033339;28;20320;-67
2023/01/11 17:52:38;;;;;;;0.20;0.20;;;10.30;99.90;13.40;101007.00;;;;5032542;28;20198;-66
2023/01/11 17:55:20;;;;;;;1.07;1.00;;;10.70;99.90;12.20;101001.00;;;;5033000;28;20193;-66
2023/01/11 17:58:40;;;;;;;2.10;1.03;;;10.50;99.90;13.30;101004.00;;;;5031910;28;20692;-67
2023/01/11 18:01:17;;;;;;;0.20;0.20;;;10.70;99.90;13.50;101009.00;;;;5011167;28;20190;-67
2023/01/11 18:03:49;;;;;;;4.17;0.90;;;10.80;99.90;12.40;101005.00;;;;5032923;28;20638;-66
2023/01/11 18:06:38;;;;;;;1.20;0.60;;;10.80;99.90;12.70;100985.00;;;;5032318;28;20194;-67
2023/01/11 18:09:25;;;;;;;0.77;0.77;;;10.60;99.90;13.20;100991.00;;;;5033730;28;20235;-67
2023/01/11 18:11:52;;;;;;;0.30;0.30;;;10.80;99.90;13.20;100972.00;;;;5054727;28;20207;-66
2023/01/11 18:14:27;;;;;;;0.30;0.30;;;10.70;99.90;13.10;100984.00;;;;5030950;28;20190;-66
2023/01/11 18:17:06;;;;;;;0.20;0.20;;;10.70;99.90;12.80;100965.00;;;;5064854;28;20182;-66
2023/01/11 18:19:41;;;;;;;0.57;0.57;;;10.60;99.90;12.80;100923.00;;;;5028515;28;20236;-66
2023/01/11 18:22:52;;;;;;;0.77;0.77;;;10.60;99.90;12.40;100941.00;;;;5032096;28;20186;-66
2023/01/11 18:25:27;;;;;;;3.80;1.43;;;10.60;99.90;12.50;100954.00;;;;5032053;28;20227;-66
2023/01/11 18:28:53;;;;;;;12.00;1.53;;;10.70;99.90;12.80;100954.00;;;;5032883;28;20590;-66
2023/01/11 18:31:21;;;;;;;1.50;0.80;;;10.80;99.90;12.80;100954.00;;;;5029050;28;20207;-65
2023/01/11 18:34:08;;;;;;;0.70;0.70;;;10.70;99.90;13.40;100924.00;;;;5031397;28;20211;-66
2023/01/11 18:37:24;;;;;;;0.40;0.40;;;10.80;99.90;12.90;100952.00;;;;5031931;28;20187;-66
2023/01/11 18:40:00;;;;;;;6.93;1.30;;;10.90;99.90;12.10;100925.00;;;;5030457;28;20208;-66
2023/01/11 18:42:54;;;;;;;0.80;0.40;;;10.60;99.90;12.90;100939.00;;;;5011385;28;20198;-67
2023/01/11 18:45:58;;;;;;;0.67;0.20;;;10.70;99.90;12.70;100924.00;;;;5045123;28;20187;-67
2023/01/11 18:48:51;;;;;;;0.40;0.40;;;10.70;99.90;12.70;100878.00;;;;5031137;28;20691;-68
2023/01/11 18:51:32;;;;;;;0.20;0.20;;;10.70;99.90;13.70;100907.00;;;;5029010;28;20196;-67
2023/01/11 18:57:23;;;;;;;2.30;1.03;;;10.90;99.90;12.90;100908.00;;;;5036311;28;20209;-67
2023/01/11 19:00:13;;;;;;;0.33;0.33;;;10.80;99.90;13.20;100926.00;;;;5027246;28;20245;-67
2023/01/11 19:02:43;;;;;;;0.53;0.40;;;11.00;99.90;13.20;100905.00;;;;5035210;28;20213;-67
2023/01/11 19:05:40;;;;;;;0.30;0.30;;;11.00;99.90;12.90;100912.00;;;;5035657;28;20195;-67
2023/01/11 19:08:29;;;;;;;0.83;0.73;;;11.00;99.90;13.00;100911.00;;;;5023720;28;20242;-67
2023/01/11 19:11:02;;;;;;;0.93;0.40;;;10.80;99.90;13.30;100909.00;;;;5031829;28;20190;-67
2023/01/11 19:13:40;;;;;;;0.60;0.60;;;10.90;99.90;12.60;100895.00;;;;5035574;28;20251;-67
2023/01/11 19:16:06;;;;;;;1.47;0.97;;;10.80;99.90;13.30;100893.00;;;;5035157;28;20219;-67
2023/01/11 19:18:33;;;;;;;2.90;0.37;;;10.90;99.90;13.70;100921.00;;;;5035092;28;20654;-67
2023/01/11 19:21:05;;;;;;;8.07;1.07;;;11.10;99.90;13.60;100911.00;;;;5035995;28;20206;-67
2023/01/11 19:23:32;;;;;;;0.77;0.77;;;11.20;99.90;13.30;100895.00;;;;5035036;28;20188;-67
2023/01/11 19:26:00;;;;;;;1.30;0.60;;;11.10;99.90;12.40;100882.00;;;;5028238;28;20727;-67
2023/01/11 19:28:27;;;;;;;0.40;0.40;;;10.80;99.90;12.60;100848.00;;;;5018745;28;20221;-67
2023/01/11 19:30:53;;;;;;;3.80;0.90;;;10.60;99.90;12.40;100830.00;;;;5034613;28;20183;-67
2023/01/11 19:33:19;;;;;;;2.53;1.20;;;10.40;99.90;12.20;100826.00;;;;5035484;28;20218;-67
2023/01/11 19:35:48;;;;;;;2.53;0.87;;;10.30;99.90;12.10;100792.00;;;;5018687;28;20182;-67
2023/01/11 19:38:21;;;;;;;3.30;1.20;;;10.20;99.90;12.30;100818.00;;;;5034942;28;20608;-67
2023/01/11 19:40:47;;;;;;;0.53;0.40;;;10.30;99.90;11.70;100816.00;;;;5035733;28;20182;-67
2023/01/11 19:43:14;;;;;;;2.33;1.70;;;10.10;99.90;11.80;100815.00;;;;5034955;28;20218;-67
2023/01/11 19:46:02;;;;;;;0.47;0.47;;;10.10;99.90;12.40;100822.00;;;;5035332;28;20646;-67
2023/01/11 19:49:10;;;;;;;0.30;0.30;;;10.20;99.90;12.20;100819.00;;;;5034972;28;20183;-68
2023/01/11 19:52:11;;;;;;;0.63;0.63;;;10.10;99.90;12.00;100802.00;;;;5028280;28;20183;-67
2023/01/11 19:54:53;;;;;;;0.30;0.30;;;10.10;99.90;11.70;100817.00;;;;5034245;28;20649;-67
2023/01/11 19:58:11;;;;;;;0.30;0.30;;;10.00;99.90;11.50;100808.00;;;;5029989;28;20261;-67
2023/01/11 20:01:07;;;;;;;0.23;0.23;;;9.90;99.90;12.30;100811.00;;;;5029555;28;20551;-67
2023/01/11 20:03:46;;;;;;;0.60;0.60;;;10.00;99.90;12.30;100788.00;;;;5035868;28;20201;-68
2023/01/11 20:06:31;;;;;;;0.40;0.40;;;10.10;99.90;11.40;100799.00;;;;5038521;28;20195;-67
2023/01/11 20:09:27;;;;;;;1.37;1.10;;;9.90;99.90;10.90;100808.00;;;;5041110;28;20215;-67
2023/01/11 20:12:14;;;;;;;0.30;0.30;;;9.80;99.90;12.00;100817.00;;;;5025957;28;20210;-67
2023/01/11 20:14:48;;;;;;;2.33;0.87;;;9.90;99.90;11.90;100810.00;;;;5046129;28;20190;-67
2023/01/11 20:17:36;;;;;;;5.00;0.80;;;10.00;99.90;12.30;100807.00;;;;5061662;28;20175;-67
2023/01/11 20:20:05;;;;;;;5.43;1.40;;;10.10;99.90;11.30;100806.00;;;;5018036;28;20221;-67
2023/01/11 20:22:52;;;;;;;6.30;1.93;;;10.00;99.90;10.20;100795.00;;;;5033571;28;20208;-67